Time;durP1;ratioP1;P1;durP2;ratioP2;P2;SDS_P1;SDS_P2;PMS_P1;PMS_P2;Temp;Humidity;BMP_temperature;BMP_pressure;BME280_temperature;BME280_humidity;BME280_pressure;Samples;Min_cycle;Max_cycle;Signal;HPM_P1;HPM_P2
2023/05/10 00:01:04;;;;;;;22.60;11.57;;;;;;;12.53;100.00;100747.44;4991703;28;20095;-69
2023/05/10 00:03:30;;;;;;;22.77;12.30;;;;;;;12.52;100.00;100745.72;5008378;28;20508;-69
2023/05/10 00:05:56;;;;;;;17.92;11.65;;;;;;;12.50;100.00;100739.53;5009066;28;20541;-70
2023/05/10 00:08:21;;;;;;;26.60;13.90;;;;;;;12.50;100.00;100740.38;4990444;28;20042;-68
2023/05/10 00:10:47;;;;;;;20.75;12.20;;;;;;;12.50;100.00;100750.44;4988482;28;20368;-69
2023/05/10 00:13:12;;;;;;;23.15;13.02;;;;;;;12.46;100.00;100747.09;4992435;28;20046;-68
2023/05/10 00:15:37;;;;;;;27.10;14.05;;;;;;;12.44;100.00;100746.31;4989002;28;20062;-69
2023/05/10 00:18:03;;;;;;;24.52;13.68;;;;;;;12.44;100.00;100745.47;4988635;28;20038;-68
2023/05/10 00:20:28;;;;;;;28.02;13.98;;;;;;;12.40;100.00;100739.41;4988391;28;20045;-69
2023/05/10 00:22:54;;;;;;;25.70;13.02;;;;;;;12.40;100.00;100744.88;4988019;28;20128;-68
2023/05/10 00:25:21;;;;;;;22.38;12.50;;;;;;;12.35;100.00;100747.06;4987244;28;20070;-70
2023/05/10 00:27:46;;;;;;;24.13;13.05;;;;;;;12.35;100.00;100741.63;4988095;28;20121;-69
2023/05/10 00:30:12;;;;;;;24.60;13.93;;;;;;;12.31;100.00;100744.72;4986967;28;20137;-68
2023/05/10 00:32:37;;;;;;;24.02;12.88;;;;;;;12.28;100.00;100748.59;4988284;28;20105;-69
2023/05/10 00:35:03;;;;;;;22.55;13.40;;;;;;;12.24;100.00;100747.09;4986990;28;20041;-69
2023/05/10 00:37:29;;;;;;;21.55;13.10;;;;;;;12.21;100.00;100750.06;4997383;28;20397;-68
2023/05/10 00:39:54;;;;;;;26.23;13.80;;;;;;;12.18;100.00;100747.59;5008672;28;20033;-68
2023/05/10 00:42:19;;;;;;;28.05;15.57;;;;;;;12.14;100.00;100748.84;5001460;28;20034;-69
2023/05/10 00:44:46;;;;;;;29.88;13.57;;;;;;;12.09;100.00;100757.38;4986777;28;20042;-68
2023/05/10 00:47:12;;;;;;;26.25;13.60;;;;;;;12.08;100.00;100752.06;4987374;28;20616;-69
2023/05/10 00:49:37;;;;;;;23.67;13.93;;;;;;;12.06;100.00;100754.03;4988011;28;20049;-69
2023/05/10 00:52:03;;;;;;;22.77;13.45;;;;;;;12.09;100.00;100745.63;4986792;28;20026;-69
2023/05/10 00:54:29;;;;;;;29.13;15.65;;;;;;;12.10;100.00;100744.63;4999796;28;20044;-69
2023/05/10 00:56:56;;;;;;;27.98;15.18;;;;;;;12.09;100.00;100738.31;5003713;28;20133;-69
2023/05/10 00:59:22;;;;;;;30.02;14.60;;;;;;;12.08;100.00;100742.03;5002181;28;20035;-69
2023/05/10 01:01:48;;;;;;;32.28;16.30;;;;;;;12.09;100.00;100742.88;4993509;28;20025;-69
2023/05/10 01:04:15;;;;;;;27.98;15.57;;;;;;;12.07;100.00;100737.53;5005540;28;20111;-69
2023/05/10 01:06:41;;;;;;;28.27;15.13;;;;;;;12.03;100.00;100738.81;5002323;28;20022;-69
2023/05/10 01:09:07;;;;;;;30.38;16.00;;;;;;;12.03;100.00;100736.06;4985631;28;20037;-68
2023/05/10 01:11:35;;;;;;;30.92;16.67;;;;;;;12.05;100.00;100739.53;4986117;28;20042;-68
2023/05/10 01:14:02;;;;;;;28.95;16.13;;;;;;;12.05;100.00;100741.41;4986021;28;20030;-69
2023/05/10 01:16:29;;;;;;;25.90;14.95;;;;;;;12.03;100.00;100741.53;4986156;28;20042;-69
2023/05/10 01:18:55;;;;;;;27.83;15.13;;;;;;;12.03;100.00;100735.19;4986632;28;20038;-69
2023/05/10 01:21:38;;;;;;;25.40;13.98;;;;;;;12.04;100.00;100737.81;4986954;28;20399;-69
2023/05/10 01:24:22;;;;;;;26.27;13.85;;;;;;;12.05;100.00;100745.00;4984865;28;20042;-69
2023/05/10 01:27:18;;;;;;;29.20;15.30;;;;;;;12.07;100.00;100733.94;4987033;28;20136;-68
2023/05/10 01:30:19;;;;;;;32.08;16.73;;;;;;;12.09;100.00;100731.97;4987667;28;20037;-69
2023/05/10 01:33:12;;;;;;;40.63;18.50;;;;;;;12.10;100.00;100733.72;4985716;28;20042;-69
2023/05/10 01:35:49;;;;;;;47.63;20.02;;;;;;;12.12;100.00;100731.72;4987390;28;20038;-69
2023/05/10 01:38:32;;;;;;;55.47;24.40;;;;;;;12.14;100.00;100735.19;4984311;28;20459;-69
2023/05/10 01:41:07;;;;;;;65.88;27.10;;;;;;;12.17;100.00;100737.66;4998886;28;20038;-69
2023/05/10 01:43:42;;;;;;;62.55;27.30;;;;;;;12.18;100.00;100732.09;4995491;28;20509;-68
2023/05/10 01:46:14;;;;;;;70.55;27.05;;;;;;;12.21;100.00;100742.75;4987281;28;20057;-69
2023/05/10 01:48:53;;;;;;;71.28;28.42;;;;;;;12.24;100.00;100741.63;4987097;28;20502;-69
2023/05/10 01:51:29;;;;;;;74.00;30.00;;;;;;;12.27;100.00;100738.69;4985304;28;20077;-69
2023/05/10 01:54:00;;;;;;;74.22;31.80;;;;;;;12.30;100.00;100748.44;4986251;28;20545;-69
2023/05/10 01:56:28;;;;;;;70.22;28.98;;;;;;;12.24;100.00;100728.88;4987218;28;20042;-69
2023/05/10 01:58:55;;;;;;;67.65;29.13;;;;;;;12.27;100.00;100737.81;4992139;28;20401;-69
2023/05/10 02:01:21;;;;;;;76.80;31.45;;;;;;;12.34;100.00;100747.22;4985572;28;20425;-69
2023/05/10 02:03:49;;;;;;;68.97;30.02;;;;;;;12.34;100.00;100752.66;4985093;28;20759;-69
2023/05/10 02:06:18;;;;;;;71.93;29.40;;;;;;;12.34;100.00;100745.34;4986308;28;20117;-69
2023/05/10 02:08:46;;;;;;;67.43;28.05;;;;;;;12.38;100.00;100752.28;4985046;28;20038;-69
2023/05/10 02:11:13;;;;;;;71.90;29.98;;;;;;;12.39;100.00;100754.03;4986663;28;20521;-69
2023/05/10 02:13:41;;;;;;;66.63;29.30;;;;;;;12.41;100.00;100745.72;4986554;28;20096;-69
2023/05/10 02:16:08;;;;;;;65.70;28.70;;;;;;;12.40;100.00;100739.41;4987025;28;20035;-69
2023/05/10 02:18:35;;;;;;;68.57;31.08;;;;;;;12.42;100.00;100753.78;4986521;28;20552;-69
2023/05/10 02:21:02;;;;;;;65.15;29.98;;;;;;;12.43;100.00;100760.09;4986538;28;20512;-69
2023/05/10 02:23:29;;;;;;;64.25;29.98;;;;;;;12.43;100.00;100760.97;4986244;28;20038;-69
2023/05/10 02:25:56;;;;;;;70.53;31.13;;;;;;;12.45;100.00;100769.03;4985809;28;20549;-69
2023/05/10 02:28:24;;;;;;;67.10;30.25;;;;;;;12.43;100.00;100763.69;4976839;28;20033;-69
2023/05/10 02:30:52;;;;;;;63.40;30.50;;;;;;;12.46;100.00;100770.78;4986180;28;20517;-69
2023/05/10 02:33:19;;;;;;;69.97;31.13;;;;;;;12.44;100.00;100770.03;4985270;28;20030;-69
2023/05/10 02:35:46;;;;;;;67.15;30.10;;;;;;;12.44;100.00;100759.97;4985371;28;20515;-69
2023/05/10 02:38:13;;;;;;;67.88;31.20;;;;;;;12.43;100.00;100762.84;5001228;28;20485;-69
2023/05/10 02:40:41;;;;;;;71.75;31.90;;;;;;;12.40;100.00;100763.97;5006156;28;20049;-69
2023/05/10 02:43:11;;;;;;;65.55;29.77;;;;;;;12.37;100.00;100761.47;4998423;28;20376;-69
2023/05/10 02:45:39;;;;;;;62.85;30.05;;;;;;;12.36;100.00;100759.75;4985428;28;20092;-68
2023/05/10 02:48:05;;;;;;;72.28;32.25;;;;;;;12.34;100.00;100758.13;4984820;28;20180;-68
2023/05/10 02:50:33;;;;;;;69.07;30.38;;;;;;;12.34;100.00;100763.59;4986541;28;20133;-69
2023/05/10 02:53:09;;;;;;;72.65;32.80;;;;;;;12.35;100.00;100760.72;4985096;28;20026;-68
2023/05/10 02:55:40;;;;;;;67.18;30.05;;;;;;;12.33;100.00;100760.00;4985373;28;20074;-69
2023/05/10 02:58:06;;;;;;;71.03;32.72;;;;;;;12.30;100.00;100762.97;4985620;28;20419;-68
2023/05/10 03:00:31;;;;;;;76.55;34.28;;;;;;;12.32;100.00;100768.31;4986721;28;20491;-68
2023/05/10 03:02:57;;;;;;;76.72;34.75;;;;;;;12.29;100.00;100763.09;4998940;28;20557;-68
2023/05/10 03:05:23;;;;;;;77.68;34.97;;;;;;;12.28;100.00;100762.22;4985568;28;20047;-69
2023/05/10 03:07:48;;;;;;;76.50;35.72;;;;;;;12.29;100.00;100774.00;4990494;28;20026;-69
2023/05/10 03:10:14;;;;;;;80.63;33.42;;;;;;;12.28;100.00;100769.53;5004165;28;20461;-68
2023/05/10 03:13:03;;;;;;;75.75;34.15;;;;;;;12.30;100.00;100779.31;4993986;28;20065;-68
2023/05/10 03:15:47;;;;;;;81.63;34.92;;;;;;;12.30;100.00;100776.59;4985407;28;20057;-68
2023/05/10 03:18:18;;;;;;;81.97;36.13;;;;;;;12.29;100.00;100769.41;4997349;28;20038;-68
2023/05/10 03:20:48;;;;;;;77.38;36.03;;;;;;;12.29;100.00;100768.53;4990172;28;20037;-68
2023/05/10 03:23:27;;;;;;;80.03;35.47;;;;;;;12.29;100.00;100774.88;4987168;28;20044;-68
2023/05/10 03:25:52;;;;;;;82.13;37.60;;;;;;;12.30;100.00;100782.06;4994766;28;20363;-68
2023/05/10 03:28:20;;;;;;;84.32;34.67;;;;;;;12.32;100.00;100774.63;5000146;28;20110;-68
2023/05/10 03:30:46;;;;;;;82.90;35.30;;;;;;;12.33;100.00;100776.34;4988257;28;20490;-68
2023/05/10 03:33:13;;;;;;;84.57;37.28;;;;;;;12.36;100.00;100781.56;4988523;28;20395;-69
2023/05/10 03:35:42;;;;;;;75.65;34.75;;;;;;;12.36;100.00;100778.84;4989987;28;20050;-68
2023/05/10 03:38:07;;;;;;;74.25;34.67;;;;;;;12.37;100.00;100777.84;4986634;28;20045;-69
2023/05/10 03:40:32;;;;;;;78.22;34.53;;;;;;;12.39;100.00;100784.03;4988066;28;20034;-69
2023/05/10 03:42:59;;;;;;;77.22;33.90;;;;;;;12.39;100.00;100785.91;4989958;28;20034;-68
2023/05/10 03:45:25;;;;;;;69.78;33.17;;;;;;;12.40;100.00;100783.06;4989393;28;20034;-69
2023/05/10 03:47:50;;;;;;;71.72;33.80;;;;;;;12.43;100.00;100790.13;4989194;28;20405;-68
2023/05/10 03:50:16;;;;;;;74.75;34.58;;;;;;;12.41;100.00;100787.53;4987852;28;20355;-69
2023/05/10 03:52:42;;;;;;;73.15;33.95;;;;;;;12.42;100.00;100786.53;4992256;28;20128;-68
2023/05/10 03:55:07;;;;;;;70.43;33.35;;;;;;;12.43;100.00;100790.13;4989238;28;20050;-69
2023/05/10 03:57:34;;;;;;;65.82;31.27;;;;;;;12.41;100.00;100795.72;4987572;28;20039;-68
2023/05/10 03:59:59;;;;;;;66.65;31.23;;;;;;;12.41;100.00;100800.31;4989165;28;20114;-68
2023/05/10 04:02:25;;;;;;;66.35;31.58;;;;;;;12.41;100.00;100798.44;4989302;28;20506;-68
2023/05/10 04:04:50;;;;;;;66.95;31.13;;;;;;;12.42;100.00;100797.44;4987685;28;20072;-69
2023/05/10 04:07:16;;;;;;;62.95;30.05;;;;;;;12.41;100.00;100794.84;4986094;28;20099;-68
2023/05/10 04:09:41;;;;;;;66.03;29.58;;;;;;;12.43;100.00;100801.03;4987773;28;20065;-69
2023/05/10 04:12:07;;;;;;;68.97;31.63;;;;;;;12.42;100.00;100802.03;4988270;28;20092;-69
2023/05/10 04:14:32;;;;;;;76.68;33.45;;;;;;;12.40;100.00;100804.91;4988905;28;20038;-69
2023/05/10 04:16:57;;;;;;;79.32;34.47;;;;;;;12.39;100.00;100805.84;4988388;28;20085;-69
2023/05/10 04:19:23;;;;;;;74.55;34.05;;;;;;;12.38;100.00;100806.84;4989532;28;20042;-69
2023/05/10 04:21:48;;;;;;;75.38;33.78;;;;;;;12.37;100.00;100805.13;4987892;28;20096;-69
2023/05/10 04:24:14;;;;;;;76.05;34.40;;;;;;;12.38;100.00;100808.72;4987129;28;20070;-69
2023/05/10 04:26:40;;;;;;;72.95;32.95;;;;;;;12.35;100.00;100806.22;4988356;28;20053;-69
2023/05/10 04:29:05;;;;;;;71.20;30.35;;;;;;;12.31;100.00;100805.63;4988437;28;20038;-69
2023/05/10 04:31:30;;;;;;;71.78;31.70;;;;;;;12.29;100.00;100801.28;4987832;28;20091;-69
2023/05/10 04:33:56;;;;;;;69.07;28.92;;;;;;;12.26;100.00;100816.03;4988885;28;20137;-69
2023/05/10 04:36:21;;;;;;;64.10;29.95;;;;;;;12.24;100.00;100816.16;4986729;28;20049;-69
2023/05/10 04:38:47;;;;;;;62.50;28.23;;;;;;;12.24;100.00;100812.56;4986930;28;20034;-69
2023/05/10 04:41:12;;;;;;;61.65;26.80;;;;;;;12.21;100.00;100813.66;4988177;28;20204;-69
2023/05/10 04:43:38;;;;;;;64.07;27.42;;;;;;;12.22;100.00;100809.09;4993460;28;20038;-69
2023/05/10 04:46:04;;;;;;;50.90;25.33;;;;;;;12.19;100.00;100812.06;4988434;28;20061;-69
2023/05/10 04:48:30;;;;;;;50.80;25.17;;;;;;;12.15;100.00;100810.56;4988003;28;20426;-69
2023/05/10 04:50:55;;;;;;;55.42;24.23;;;;;;;12.13;100.00;100818.88;4988777;28;20142;-69
2023/05/10 04:53:21;;;;;;;45.88;23.30;;;;;;;12.11;100.00;100822.69;4986521;28;20034;-69
2023/05/10 04:55:47;;;;;;;48.28;22.27;;;;;;;12.09;100.00;100833.75;4987723;28;20247;-69
2023/05/10 04:58:12;;;;;;;48.60;22.10;;;;;;;12.08;100.00;100822.97;4988162;28;20042;-69
2023/05/10 05:00:38;;;;;;;43.45;21.73;;;;;;;12.07;100.00;100830.25;4988046;28;20545;-69
2023/05/10 05:03:04;;;;;;;47.33;21.40;;;;;;;12.07;100.00;100829.38;4987301;28;20018;-69
2023/05/10 05:05:29;;;;;;;47.03;21.23;;;;;;;12.09;100.00;100833.75;5002385;28;20085;-69
2023/05/10 05:07:54;;;;;;;43.83;21.98;;;;;;;12.06;100.00;100831.25;4986994;28;20038;-69
2023/05/10 05:10:20;;;;;;;42.00;21.38;;;;;;;12.08;100.00;100833.88;4987493;28;20038;-69
2023/05/10 05:12:45;;;;;;;44.03;22.02;;;;;;;12.06;100.00;100825.78;4987217;28;20085;-69
2023/05/10 05:15:10;;;;;;;39.38;20.63;;;;;;;12.08;100.00;100829.28;4987841;28;20026;-69
2023/05/10 05:17:36;;;;;;;40.38;21.23;;;;;;;12.13;100.00;100840.69;4999208;28;20104;-69
2023/05/10 05:20:02;;;;;;;50.25;22.88;;;;;;;12.16;100.00;100828.66;4990337;28;20018;-69
2023/05/10 05:22:28;;;;;;;41.33;20.27;;;;;;;12.20;100.00;100836.47;4985972;28;20147;-69
2023/05/10 05:24:54;;;;;;;43.60;20.98;;;;;;;12.22;100.00;100833.66;4988078;28;20125;-69
2023/05/10 05:27:22;;;;;;;39.42;21.00;;;;;;;12.25;100.00;100842.44;5001437;28;20101;-69
2023/05/10 05:29:47;;;;;;;42.13;20.35;;;;;;;12.27;100.00;100842.31;5006635;28;20056;-69
2023/05/10 05:32:13;;;;;;;39.35;20.40;;;;;;;12.29;100.00;100851.25;5006701;28;20382;-69
2023/05/10 05:34:38;;;;;;;39.72;19.85;;;;;;;12.29;100.00;100847.66;5007014;28;20827;-68
2023/05/10 05:37:04;;;;;;;41.88;20.75;;;;;;;12.29;100.00;100847.66;4993156;28;20390;-69
2023/05/10 05:39:29;;;;;;;41.05;20.65;;;;;;;12.28;100.00;100846.78;4987029;28;20105;-69
2023/05/10 05:41:54;;;;;;;40.35;20.27;;;;;;;12.29;100.00;100853.97;5000078;28;20437;-69
2023/05/10 05:44:20;;;;;;;40.05;19.88;;;;;;;12.30;100.00;100849.38;4989752;28;20087;-69
2023/05/10 05:46:45;;;;;;;43.78;20.25;;;;;;;12.33;100.00;100852.75;4986999;28;20199;-69
2023/05/10 05:49:11;;;;;;;45.92;20.33;;;;;;;12.41;100.00;100852.13;4987015;28;20493;-69
2023/05/10 05:51:36;;;;;;;40.80;20.70;;;;;;;12.46;100.00;100850.78;4986277;28;20429;-69
2023/05/10 05:54:03;;;;;;;40.42;19.90;;;;;;;12.51;100.00;100855.88;4986579;28;20045;-69
2023/05/10 05:56:28;;;;;;;43.55;20.92;;;;;;;12.63;100.00;100856.72;4986499;28;20394;-69
2023/05/10 05:58:53;;;;;;;35.63;19.42;;;;;;;12.68;100.00;100858.09;4994276;28;20038;-69
2023/05/10 06:01:19;;;;;;;42.97;20.30;;;;;;;12.72;100.00;100854.09;4987151;28;20084;-69
2023/05/10 06:03:44;;;;;;;40.03;19.92;;;;;;;12.75;100.00;100859.31;4986689;28;20077;-69
2023/05/10 06:06:10;;;;;;;41.00;20.63;;;;;;;12.86;100.00;100869.38;4986653;28;20038;-69
2023/05/10 06:08:35;;;;;;;40.13;20.05;;;;;;;13.00;100.00;100865.50;4986204;28;20114;-69
2023/05/10 06:11:01;;;;;;;38.55;20.13;;;;;;;13.11;100.00;100865.50;4986436;28;20058;-69
2023/05/10 06:13:32;;;;;;;41.17;20.60;;;;;;;13.11;100.00;100873.69;4987379;28;20050;-69
2023/05/10 06:16:01;;;;;;;38.35;19.60;;;;;;;13.14;100.00;100876.16;4987237;28;20120;-69
2023/05/10 06:18:27;;;;;;;40.72;20.65;;;;;;;13.11;100.00;100879.16;4986090;28;20065;-69
2023/05/10 06:20:52;;;;;;;40.22;19.73;;;;;;;13.14;100.00;100878.03;4987476;28;20476;-69
2023/05/10 06:23:18;;;;;;;34.50;19.15;;;;;;;13.14;100.00;100876.16;4985764;28;20100;-69
2023/05/10 06:25:43;;;;;;;40.08;19.98;;;;;;;13.12;100.00;100878.16;4986950;28;20041;-69
2023/05/10 06:28:08;;;;;;;38.75;20.17;;;;;;;13.12;100.00;100880.88;4986255;28;20037;-69
2023/05/10 06:30:36;;;;;;;41.45;19.55;;;;;;;13.15;100.00;100886.13;4985577;28;20049;-69
2023/05/10 06:33:01;;;;;;;38.95;19.85;;;;;;;13.17;100.00;100878.66;5001305;28;20038;-69
2023/05/10 06:35:28;;;;;;;39.83;19.45;;;;;;;13.24;100.00;100887.22;4987345;28;20043;-69
2023/05/10 06:37:53;;;;;;;37.65;19.35;;;;;;;13.23;100.00;100893.69;4986058;28;20038;-69
2023/05/10 06:40:19;;;;;;;36.70;19.88;;;;;;;13.22;100.00;100900.16;4985476;28;20052;-69
2023/05/10 06:42:45;;;;;;;37.90;19.33;;;;;;;13.17;100.00;100900.50;4985935;28;20544;-70
2023/05/10 06:45:11;;;;;;;40.08;19.55;;;;;;;13.15;100.00;100898.88;4985329;28;20041;-69
2023/05/10 06:47:36;;;;;;;40.38;19.58;;;;;;;13.15;100.00;100901.59;4986482;28;20097;-69
2023/05/10 06:50:01;;;;;;;41.08;21.85;;;;;;;13.16;100.00;100906.97;4986618;28;20447;-69
2023/05/10 06:52:27;;;;;;;44.53;21.85;;;;;;;13.19;100.00;100905.81;4983968;28;20402;-69
2023/05/10 06:54:52;;;;;;;41.13;21.02;;;;;;;13.23;100.00;100907.34;4990661;28;20034;-69
2023/05/10 06:57:17;;;;;;;42.65;21.83;;;;;;;13.31;100.00;100901.25;4988737;28;20066;-69
2023/05/10 06:59:43;;;;;;;39.83;20.63;;;;;;;13.38;100.00;100897.00;4990057;28;20062;-68
2023/05/10 07:02:08;;;;;;;42.08;20.90;;;;;;;13.40;100.00;100904.09;4988372;28;20042;-69
2023/05/10 07:04:34;;;;;;;39.10;20.02;;;;;;;13.43;100.00;100906.56;4989986;28;20042;-68
2023/05/10 07:06:59;;;;;;;40.53;21.25;;;;;;;13.47;100.00;100920.84;4988909;28;20414;-69
2023/05/10 07:09:24;;;;;;;44.50;21.77;;;;;;;13.47;100.00;100915.38;4989403;28;20572;-68
2023/05/10 07:11:50;;;;;;;41.13;22.45;;;;;;;13.46;100.00;100914.50;4988499;28;20490;-69
2023/05/10 07:14:15;;;;;;;41.45;20.48;;;;;;;13.51;100.00;100920.44;5000352;28;20310;-69
2023/05/10 07:16:41;;;;;;;40.60;20.50;;;;;;;13.51;100.00;100923.19;4989737;28;20042;-69
2023/05/10 07:19:06;;;;;;;42.45;21.60;;;;;;;13.50;100.00;100926.06;4989852;28;20038;-69
2023/05/10 07:21:32;;;;;;;44.10;21.27;;;;;;;13.45;100.00;100925.56;4988948;28;20069;-69
2023/05/10 07:23:58;;;;;;;40.10;21.15;;;;;;;13.41;100.00;100933.16;4994569;28;20541;-69
2023/05/10 07:26:23;;;;;;;41.38;22.67;;;;;;;13.41;100.00;100932.28;5009887;28;20076;-68
2023/05/10 07:28:49;;;;;;;42.13;20.67;;;;;;;13.40;100.00;100938.75;4993091;28;20042;-69
2023/05/10 07:31:15;;;;;;;41.42;22.02;;;;;;;13.42;100.00;100934.00;4989547;28;20130;-69
2023/05/10 07:33:40;;;;;;;41.90;21.55;;;;;;;13.41;100.00;100943.22;4989227;28;20077;-69
2023/05/10 07:36:06;;;;;;;41.30;20.80;;;;;;;13.39;100.00;100943.34;4989465;28;20039;-69
2023/05/10 07:38:31;;;;;;;44.67;21.92;;;;;;;13.39;100.00;100942.50;5003764;28;20050;-69
2023/05/10 07:40:57;;;;;;;36.45;18.50;;;;;;;13.32;100.00;100930.31;4989687;28;20033;-69
2023/05/10 07:43:22;;;;;;;35.20;18.38;;;;;;;13.41;100.00;100944.09;4990334;28;20084;-69
2023/05/10 07:45:47;;;;;;;38.72;18.98;;;;;;;13.46;100.00;100944.56;4988478;28;20031;-68
2023/05/10 07:48:13;;;;;;;35.20;18.30;;;;;;;13.47;100.00;100951.75;4988913;28;20085;-69
2023/05/10 07:50:38;;;;;;;37.47;18.27;;;;;;;13.44;100.00;100946.56;4989457;28;20096;-69
2023/05/10 07:53:03;;;;;;;31.48;18.17;;;;;;;13.49;100.00;100954.38;4987678;28;20030;-69
2023/05/10 07:55:29;;;;;;;30.27;16.60;;;;;;;13.50;100.00;100956.13;4989420;28;20050;-69
2023/05/10 07:57:54;;;;;;;32.00;17.17;;;;;;;13.51;100.00;100963.31;4990100;28;20092;-69
2023/05/10 08:00:20;;;;;;;28.55;15.65;;;;;;;13.50;100.00;100965.19;4987960;28;20034;-68
2023/05/10 08:02:46;;;;;;;32.22;15.75;;;;;;;13.49;100.00;100966.19;5003492;28;20029;-69
2023/05/10 08:05:11;;;;;;;33.60;16.58;;;;;;;13.47;100.00;100979.09;4996048;28;20076;-69
2023/05/10 08:07:36;;;;;;;24.35;15.43;;;;;;;13.39;100.00;100973.41;4987763;28;20034;-69
2023/05/10 08:10:02;;;;;;;27.98;15.23;;;;;;;13.43;100.00;100976.72;4988944;28;20124;-68
2023/05/10 08:12:28;;;;;;;26.92;14.57;;;;;;;13.43;100.00;100976.72;4988049;28;20074;-69
2023/05/10 08:14:53;;;;;;;23.30;14.52;;;;;;;13.46;100.00;100980.09;4989547;28;20076;-69
2023/05/10 08:17:18;;;;;;;22.45;14.70;;;;;;;13.53;100.00;100984.06;4988547;28;20045;-69
2023/05/10 08:19:44;;;;;;;30.95;14.82;;;;;;;13.65;100.00;100984.91;4988953;28;20034;-69
2023/05/10 08:22:09;;;;;;;27.92;14.32;;;;;;;13.73;100.00;100987.88;4987316;28;20046;-69
2023/05/10 08:24:38;;;;;;;20.55;12.70;;;;;;;13.80;100.00;100985.47;4994884;28;20030;-69
2023/05/10 08:27:04;;;;;;;27.60;14.23;;;;;;;13.98;100.00;100986.69;4988521;28;20065;-68
2023/05/10 08:29:30;;;;;;;20.20;13.18;;;;;;;14.04;100.00;100997.13;4987206;28;20038;-69
2023/05/10 08:31:55;;;;;;;23.63;12.77;;;;;;;14.12;100.00;101001.06;4988767;28;20169;-69
2023/05/10 08:34:20;;;;;;;17.85;11.05;;;;;;;14.16;100.00;100986.97;4987097;28;20069;-68
2023/05/10 08:36:46;;;;;;;22.38;10.98;;;;;;;14.30;99.08;100999.47;4987595;28;20155;-68
2023/05/10 08:39:11;;;;;;;16.35;11.18;;;;;;;14.35;97.91;101005.44;4988200;28;20433;-69
2023/05/10 08:41:38;;;;;;;18.73;9.85;;;;;;;14.40;97.03;101002.31;4986703;28;20474;-69
2023/05/10 08:44:05;;;;;;;23.73;10.50;;;;;;;14.46;96.88;100999.06;4988005;28;20117;-69
2023/05/10 08:46:33;;;;;;;14.25;8.77;;;;;;;14.46;95.44;101002.66;4986509;28;20065;-69
2023/05/10 08:49:04;;;;;;;16.45;10.13;;;;;;;14.49;96.63;101005.13;4988281;28;20030;-69
2023/05/10 08:51:35;;;;;;;20.58;9.48;;;;;;;14.47;97.10;101006.25;4987498;28;20085;-69
2023/05/10 08:54:01;;;;;;;18.05;9.73;;;;;;;14.46;96.58;101002.66;4987533;28;20038;-69
2023/05/10 08:56:27;;;;;;;15.70;10.38;;;;;;;14.53;98.28;101003.88;4988244;28;20038;-69
2023/05/10 08:58:52;;;;;;;17.65;9.88;;;;;;;14.63;95.90;101003.09;4988579;28;20095;-69
2023/05/10 09:01:20;;;;;;;13.20;8.30;;;;;;;14.82;96.75;101002.34;4990711;28;20056;-69
2023/05/10 09:03:46;;;;;;;15.07;8.77;;;;;;;14.97;96.35;101007.34;5006914;28;20033;-69
2023/05/10 09:06:13;;;;;;;11.60;8.45;;;;;;;15.14;96.12;101010.47;5006994;28;20185;-69
2023/05/10 09:08:41;;;;;;;13.10;8.23;;;;;;;15.12;94.09;101009.75;4994261;28;20126;-69
2023/05/10 09:11:08;;;;;;;14.35;8.23;;;;;;;15.08;93.83;101017.34;4987204;28;20038;-69
2023/05/10 09:13:35;;;;;;;10.95;7.47;;;;;;;15.16;94.45;101013.94;4987305;28;20022;-69
2023/05/10 09:16:00;;;;;;;9.05;6.70;;;;;;;15.24;94.43;101016.84;4987461;28;20042;-69
2023/05/10 09:18:26;;;;;;;12.98;7.32;;;;;;;15.39;93.65;101014.59;4988130;28;20057;-69
2023/05/10 09:20:51;;;;;;;13.57;6.85;;;;;;;15.52;93.30;101017.97;4988022;28;20105;-69
2023/05/10 09:23:17;;;;;;;11.48;6.90;;;;;;;15.70;92.21;101020.94;4985968;28;20059;-69
2023/05/10 09:25:42;;;;;;;15.02;7.32;;;;;;;15.81;92.06;101018.13;4987421;28;20493;-69
2023/05/10 09:28:09;;;;;;;14.02;7.35;;;;;;;15.99;91.86;101013.69;4987127;28;20113;-69
2023/05/10 09:30:35;;;;;;;12.07;6.93;;;;;;;16.08;89.21;101029.25;4987567;28;20502;-69
2023/05/10 09:33:01;;;;;;;10.73;6.70;;;;;;;16.28;91.20;101021.06;4986920;28;20097;-68
2023/05/10 09:35:28;;;;;;;9.30;6.07;;;;;;;16.46;88.79;101019.34;4988135;28;20096;-69
2023/05/10 09:37:55;;;;;;;7.30;5.97;;;;;;;16.56;88.18;101022.94;4986900;28;20567;-70
2023/05/10 09:40:23;;;;;;;12.10;6.20;;;;;;;16.65;88.33;101023.94;4987111;28;20466;-70
2023/05/10 09:42:58;;;;;;;10.15;6.53;;;;;;;16.79;89.45;101018.03;4987060;28;20051;-69
2023/05/10 09:45:27;;;;;;;9.27;6.60;;;;;;;16.76;87.02;101023.81;4986820;28;20045;-70
2023/05/10 09:47:52;;;;;;;9.55;6.78;;;;;;;16.66;84.25;101025.69;4987622;28;20042;-70
2023/05/10 09:50:19;;;;;;;9.48;6.28;;;;;;;16.51;85.16;101029.88;4987349;28;20471;-70
2023/05/10 09:52:48;;;;;;;9.77;6.50;;;;;;;16.40;87.19;101033.63;4986082;28;20524;-70
2023/05/10 09:55:14;;;;;;;10.00;6.88;;;;;;;16.30;85.91;101030.88;4986870;28;20038;-71
2023/05/10 09:57:40;;;;;;;9.80;6.68;;;;;;;16.31;87.05;101026.25;5001244;28;20180;-70
2023/05/10 10:00:06;;;;;;;7.00;6.10;;;;;;;16.35;87.54;101033.19;4987364;28;20713;-70
2023/05/10 10:02:39;;;;;;;10.07;6.38;;;;;;;16.28;86.80;101032.06;4994808;28;20034;-70
2023/05/10 10:05:06;;;;;;;8.63;5.72;;;;;;;16.28;87.58;101037.53;4987085;28;20061;-70
2023/05/10 10:07:32;;;;;;;8.50;5.95;;;;;;;16.45;88.22;101036.81;4985765;28;20054;-69
2023/05/10 10:09:58;;;;;;;11.05;6.00;;;;;;;16.61;87.29;101035.38;4986898;28;20038;-70
2023/05/10 10:12:25;;;;;;;10.40;5.93;;;;;;;16.82;88.71;101034.22;4987291;28;20029;-69
2023/05/10 10:14:50;;;;;;;11.85;5.72;;;;;;;16.90;85.95;101030.72;4987027;28;20049;-70
2023/05/10 10:17:16;;;;;;;7.47;5.75;;;;;;;17.04;86.06;101040.41;4987151;28;20240;-72
2023/05/10 10:19:42;;;;;;;9.85;5.15;;;;;;;17.03;85.41;101042.28;4987160;28;20026;-70
2023/05/10 10:22:08;;;;;;;9.30;5.45;;;;;;;16.85;86.06;101045.94;4985411;28;20080;-70
2023/05/10 10:24:33;;;;;;;9.07;5.60;;;;;;;16.81;84.59;101035.22;4987048;28;20087;-70
2023/05/10 10:27:11;;;;;;;12.65;6.28;;;;;;;16.83;86.77;101049.69;4986308;28;20068;-70
2023/05/10 10:30:01;;;;;;;7.53;4.82;;;;;;;16.97;86.37;101047.47;5001875;28;20557;-70
2023/05/10 10:32:48;;;;;;;8.05;5.63;;;;;;;16.99;85.45;101048.22;4990676;28;20097;-70
2023/05/10 10:35:15;;;;;;;7.72;5.25;;;;;;;16.88;85.31;101040.13;4990635;28;20494;-70
2023/05/10 10:37:45;;;;;;;13.15;5.45;;;;;;;16.79;85.64;101042.75;4989498;28;20463;-70
2023/05/10 10:40:26;;;;;;;9.68;5.18;;;;;;;16.67;84.97;101041.13;4990554;28;20042;-68
2023/05/10 10:42:53;;;;;;;7.75;4.70;;;;;;;16.57;84.87;101041.16;4989493;28;20631;-68
2023/05/10 10:45:19;;;;;;;9.63;5.40;;;;;;;16.62;86.02;101035.22;4990695;28;20479;-70
2023/05/10 10:47:45;;;;;;;7.13;5.07;;;;;;;16.75;85.41;101040.44;4990218;28;20042;-70
2023/05/10 10:50:15;;;;;;;9.27;5.75;;;;;;;16.79;83.10;101041.91;4990124;28;20038;-70
2023/05/10 10:52:43;;;;;;;12.48;5.88;;;;;;;17.06;85.72;101038.34;4989132;28;20502;-70
2023/05/10 10:55:13;;;;;;;10.32;6.10;;;;;;;17.60;87.41;101036.72;4989842;28;20173;-70
2023/05/10 10:57:51;;;;;;;9.48;5.22;;;;;;;18.13;80.25;101037.88;4990503;28;20454;-70
2023/05/10 11:00:26;;;;;;;7.47;4.95;;;;;;;18.49;81.20;101036.03;4990549;28;20275;-70
2023/05/10 11:02:58;;;;;;;7.15;5.40;;;;;;;18.53;75.65;101032.78;5005968;28;20088;-70
2023/05/10 11:05:33;;;;;;;8.75;5.03;;;;;;;18.59;78.03;101031.28;4990632;28;20089;-71
2023/05/10 11:07:59;;;;;;;7.97;5.55;;;;;;;18.47;75.55;101032.59;4988970;28;20509;-70